Terminal Aerodrome Forecast
Issued by NWS

Home | Current Version | Previous Version | Text Only | Print | Product List | Glossary On
Versions: 1 2 3 4 5 6 7 8 9 10 11 12 13 14 15 16 17 18 19 20 21 22 23 24 25 26
000
FTPA31 PHFO 012300
TAFLIH
TAF
PHLI 012340Z 0200/0224 06010KT P6SM SCT025 BKN150
     FM020500 VRB05KT P6SM FEW025 BKN070
     FM021600 22006KT P6SM VCSH SCT025 BKN070
     FM022100 19010G18KT P6SM VCSH SCT025 BKN040=

USA.gov is the U.S. government's official web portal to all federal, state and local government web resources and services.